createdAt,value
2022-07-29T00:00:11.987Z,1012.9
2022-07-29T00:01:19.198Z,1013
2022-07-29T00:03:12.029Z,1012.9
2022-07-29T00:04:12.133Z,1012.9
2022-07-29T00:05:11.991Z,1012.9
2022-07-29T00:06:11.986Z,1012.9
2022-07-29T00:07:11.990Z,1012.9
2022-07-29T00:08:12.711Z,1012.9
2022-07-29T00:09:12.011Z,1012.9
2022-07-29T00:10:11.985Z,1013
2022-07-29T00:13:11.987Z,1012.9
2022-07-29T00:15:11.985Z,1012.9
2022-07-29T00:16:12.072Z,1012.9
2022-07-29T00:17:11.992Z,1012.9
2022-07-29T00:18:11.992Z,1012.9
2022-07-29T00:19:11.988Z,1012.9
2022-07-29T00:20:11.992Z,1012.9
2022-07-29T00:21:11.987Z,1012.9
2022-07-29T00:22:11.986Z,1012.9
2022-07-29T00:23:13.678Z,1012.9
2022-07-29T00:24:12.121Z,1012.9
2022-07-29T00:26:12.053Z,1012.9
2022-07-29T00:27:11.986Z,1012.8
2022-07-29T00:28:11.995Z,1012.8
2022-07-29T00:29:33.599Z,1012.8
2022-07-29T00:30:12.021Z,1012.8
2022-07-29T00:31:12.114Z,1012.7
2022-07-29T00:33:11.996Z,1012.7
2022-07-29T00:34:12.143Z,1012.6
2022-07-29T00:35:11.988Z,1012.6
2022-07-29T00:36:12.007Z,1012.6
2022-07-29T00:37:11.988Z,1012.6
2022-07-29T00:38:11.993Z,1012.6
2022-07-29T00:39:12.012Z,1012.6
2022-07-29T00:40:11.991Z,1012.5
2022-07-29T00:41:11.998Z,1012.6
2022-07-29T00:42:11.994Z,1012.5
2022-07-29T00:43:12.001Z,1012.5
2022-07-29T00:44:12.079Z,1012.5
2022-07-29T00:45:11.995Z,1012.5
2022-07-29T00:47:12.069Z,1012.5
2022-07-29T00:48:11.992Z,1012.4
2022-07-29T00:49:12.074Z,1012.4
2022-07-29T00:50:11.990Z,1012.4
2022-07-29T00:51:12.003Z,1012.5
2022-07-29T00:52:11.991Z,1012.4
2022-07-29T00:54:12.124Z,1012.4
2022-07-29T00:55:11.999Z,1012.3
2022-07-29T00:56:12.029Z,1012.3
2022-07-29T00:57:12.024Z,1012.3
2022-07-29T00:58:12.038Z,1012.3
2022-07-29T00:59:11.994Z,1012.3
2022-07-29T01:00:11.993Z,1012.3
2022-07-29T01:01:12.033Z,1012.3
2022-07-29T01:02:12.046Z,1012.2
2022-07-29T01:03:11.998Z,1012.2
2022-07-29T01:04:12.087Z,1012.2
2022-07-29T01:05:11.998Z,1012.2
2022-07-29T01:06:11.992Z,1012.2
2022-07-29T01:08:12.002Z,1012.2
2022-07-29T01:09:12.002Z,1012.2
2022-07-29T01:10:11.999Z,1012.1
2022-07-29T01:11:12.003Z,1012.1
2022-07-29T01:12:11.999Z,1012.1
2022-07-29T01:13:12.082Z,1012.2
2022-07-29T01:15:11.997Z,1012.1
2022-07-29T01:16:12.019Z,1012.1
2022-07-29T01:17:11.994Z,1012.1
2022-07-29T01:18:11.989Z,1012.1
2022-07-29T01:19:11.997Z,1012.1
2022-07-29T01:20:12.019Z,1012.1
2022-07-29T01:21:12.009Z,1012.1
2022-07-29T01:22:12.001Z,1012.1
2022-07-29T01:23:12.000Z,1012
2022-07-29T01:24:12.096Z,1012
2022-07-29T01:25:12.001Z,1012
2022-07-29T01:26:12.002Z,1012
2022-07-29T01:27:12.024Z,1012
2022-07-29T01:29:12.137Z,1011.9
2022-07-29T01:30:13.068Z,1011.9
2022-07-29T01:31:12.062Z,1011.9
2022-07-29T01:32:27.918Z,1011.9
2022-07-29T01:33:12.006Z,1011.9
2022-07-29T01:35:12.020Z,1012
2022-07-29T01:36:12.005Z,1012
2022-07-29T01:37:12.020Z,1012
2022-07-29T01:38:12.001Z,1012
2022-07-29T01:39:12.007Z,1012
2022-07-29T01:41:12.003Z,1012
2022-07-29T01:42:12.003Z,1012
2022-07-29T01:43:12.015Z,1012
2022-07-29T01:44:12.236Z,1012
2022-07-29T01:45:12.012Z,1011.9
2022-07-29T01:47:12.045Z,1012
2022-07-29T01:48:12.001Z,1012
2022-07-29T01:49:12.084Z,1012
2022-07-29T01:50:12.015Z,1011.9
2022-07-29T01:51:12.012Z,1011.9
2022-07-29T01:53:12.017Z,1011.9
2022-07-29T01:55:12.017Z,1011.9
2022-07-29T01:56:12.018Z,1011.9
2022-07-29T01:57:12.010Z,1011.9
2022-07-29T01:58:12.013Z,1011.9
2022-07-29T01:59:12.006Z,1011.9
2022-07-29T02:00:12.007Z,1011.9
2022-07-29T02:02:12.058Z,1011.9
2022-07-29T02:03:12.010Z,1011.8
2022-07-29T02:04:12.187Z,1011.9
2022-07-29T02:05:12.049Z,1011.8
2022-07-29T02:06:12.010Z,1011.8
2022-07-29T02:07:12.005Z,1011.9
2022-07-29T02:08:12.008Z,1011.8
2022-07-29T02:09:12.057Z,1011.8
2022-07-29T02:10:12.016Z,1011.8
2022-07-29T02:11:12.009Z,1011.8
2022-07-29T02:12:12.011Z,1011.8
2022-07-29T02:13:12.005Z,1011.8
2022-07-29T02:14:12.204Z,1011.8
2022-07-29T02:15:12.011Z,1011.8
2022-07-29T02:16:12.060Z,1011.8
2022-07-29T02:17:12.008Z,1011.8
2022-07-29T02:18:12.017Z,1011.8
2022-07-29T02:19:12.018Z,1011.8
2022-07-29T02:20:12.016Z,1011.8
2022-07-29T02:21:14.781Z,1011.8
2022-07-29T02:23:12.018Z,1011.8
2022-07-29T02:24:12.059Z,1011.8
2022-07-29T02:25:14.144Z,1011.8
2022-07-29T02:26:12.016Z,1011.8
2022-07-29T02:27:12.014Z,1011.8
2022-07-29T02:28:12.008Z,1011.8
2022-07-29T02:29:12.015Z,1011.8
2022-07-29T02:30:12.019Z,1011.8
2022-07-29T02:31:12.069Z,1011.8
2022-07-29T02:32:12.015Z,1011.7
2022-07-29T02:33:12.015Z,1011.7
2022-07-29T02:34:12.159Z,1011.7
2022-07-29T02:36:12.047Z,1011.7
2022-07-29T02:37:12.009Z,1011.7
2022-07-29T02:38:12.021Z,1011.7
2022-07-29T02:39:12.267Z,1011.7
2022-07-29T02:40:12.023Z,1011.7
2022-07-29T02:41:12.091Z,1011.8
2022-07-29T02:42:12.032Z,1011.8
2022-07-29T02:43:12.033Z,1011.7
2022-07-29T02:44:12.043Z,1011.8
2022-07-29T02:45:12.017Z,1011.7
2022-07-29T02:46:12.775Z,1011.7
2022-07-29T02:47:12.021Z,1011.7
2022-07-29T02:48:12.020Z,1011.7
2022-07-29T02:49:12.130Z,1011.7
2022-07-29T02:50:12.023Z,1011.7
2022-07-29T02:51:12.750Z,1011.7
2022-07-29T02:52:12.025Z,1011.7
2022-07-29T02:53:12.022Z,1011.7
2022-07-29T02:54:12.276Z,1011.8
2022-07-29T02:55:12.031Z,1011.8
2022-07-29T02:57:12.039Z,1011.8
2022-07-29T02:58:12.073Z,1011.9
2022-07-29T02:59:12.030Z,1011.8
2022-07-29T03:00:12.022Z,1011.8
2022-07-29T03:01:12.051Z,1011.9
2022-07-29T03:02:12.160Z,1011.9
2022-07-29T03:05:12.144Z,1011.9
2022-07-29T03:06:30.983Z,1012
2022-07-29T03:07:12.039Z,1012.1
2022-07-29T03:08:12.026Z,1012.2
2022-07-29T03:09:13.555Z,1012.3
2022-07-29T03:10:13.639Z,1012.3
2022-07-29T03:11:12.028Z,1012.3
2022-07-29T03:12:12.054Z,1012.3
2022-07-29T03:13:12.032Z,1012.3
2022-07-29T03:14:12.052Z,1012.3
2022-07-29T03:15:12.030Z,1012.3
2022-07-29T03:16:12.129Z,1012.2
2022-07-29T03:18:12.038Z,1012.3
2022-07-29T03:19:12.037Z,1012.3
2022-07-29T03:20:12.030Z,1012.4
2022-07-29T03:21:12.031Z,1012.4
2022-07-29T03:22:12.064Z,1012.4
2022-07-29T03:23:12.038Z,1012.4
2022-07-29T03:24:12.032Z,1012.4
2022-07-29T03:25:12.035Z,1012.4
2022-07-29T03:26:12.024Z,1012.4
2022-07-29T03:27:12.069Z,1012.4
2022-07-29T03:29:13.420Z,1012.3
2022-07-29T03:30:12.033Z,1012.3
2022-07-29T03:31:12.111Z,1012.3
2022-07-29T03:32:12.036Z,1012.3
2022-07-29T03:33:13.449Z,1012.3
2022-07-29T03:34:12.222Z,1012.4
2022-07-29T03:35:12.264Z,1012.4
2022-07-29T03:36:12.027Z,1012.4
2022-07-29T03:37:12.025Z,1012.4
2022-07-29T03:39:12.039Z,1012.3
2022-07-29T03:40:12.040Z,1012.3
2022-07-29T03:41:12.031Z,1012.3
2022-07-29T03:42:12.067Z,1012.2
2022-07-29T03:43:12.033Z,1012.2
2022-07-29T03:44:12.350Z,1012.1
2022-07-29T03:45:12.046Z,1012.2
2022-07-29T03:46:12.097Z,1012.2
2022-07-29T03:47:12.038Z,1012.2
2022-07-29T03:48:12.036Z,1012.3
2022-07-29T03:49:12.111Z,1012.2
2022-07-29T03:50:12.035Z,1012.3
2022-07-29T03:51:12.043Z,1012.2
2022-07-29T03:52:12.039Z,1012.2
2022-07-29T03:53:12.036Z,1012.2
2022-07-29T03:54:12.042Z,1012.3
2022-07-29T03:55:12.036Z,1012.2
2022-07-29T03:56:12.041Z,1012.2
2022-07-29T03:57:12.036Z,1012.2
2022-07-29T03:58:12.040Z,1012.3
2022-07-29T04:00:12.036Z,1012.2
2022-07-29T04:01:12.081Z,1012.3
2022-07-29T04:02:12.176Z,1012.3
2022-07-29T04:03:12.157Z,1012.4
2022-07-29T04:04:12.172Z,1012.4
2022-07-29T04:05:12.041Z,1012.4
2022-07-29T04:06:12.040Z,1012.4
2022-07-29T04:07:12.047Z,1012.5
2022-07-29T04:08:12.038Z,1012.5
2022-07-29T04:09:12.041Z,1012.5
2022-07-29T04:10:12.041Z,1012.5
2022-07-29T04:11:12.046Z,1012.6
2022-07-29T04:12:12.042Z,1012.6
2022-07-29T04:13:12.037Z,1012.7
2022-07-29T04:14:12.066Z,1012.7
2022-07-29T04:15:12.033Z,1012.7
2022-07-29T04:16:12.068Z,1012.7
2022-07-29T04:17:12.038Z,1012.8
2022-07-29T04:19:12.035Z,1013
2022-07-29T04:20:12.061Z,1013.1
2022-07-29T04:21:12.047Z,1013.1
2022-07-29T04:22:12.045Z,1013.1
2022-07-29T04:23:12.035Z,1013.1
2022-07-29T04:24:12.359Z,1013
2022-07-29T04:25:12.036Z,1013
2022-07-29T04:26:12.044Z,1013
2022-07-29T04:28:12.056Z,1012.9
2022-07-29T04:29:12.047Z,1012.9
2022-07-29T04:31:12.181Z,1012.9
2022-07-29T04:32:12.066Z,1012.9
2022-07-29T04:33:12.048Z,1012.8
2022-07-29T04:34:12.084Z,1012.8
2022-07-29T04:35:12.346Z,1012.8
2022-07-29T04:36:28.515Z,1012.8
2022-07-29T04:37:12.058Z,1012.8
2022-07-29T04:38:15.891Z,1012.8
2022-07-29T04:40:12.051Z,1012.9
2022-07-29T04:41:12.063Z,1012.8
2022-07-29T04:42:12.046Z,1012.8
2022-07-29T04:43:14.179Z,1012.8
2022-07-29T04:44:12.072Z,1012.8
2022-07-29T04:45:12.051Z,1012.7
2022-07-29T04:46:12.130Z,1012.7
2022-07-29T04:47:12.044Z,1012.8
2022-07-29T04:48:12.046Z,1012.8
2022-07-29T04:49:12.141Z,1012.7
2022-07-29T04:50:12.059Z,1012.7
2022-07-29T04:51:12.063Z,1012.8
2022-07-29T04:52:12.044Z,1012.8
2022-07-29T04:53:12.047Z,1012.8
2022-07-29T04:54:12.048Z,1012.8
2022-07-29T04:55:12.061Z,1012.8
2022-07-29T04:56:12.086Z,1012.8
2022-07-29T04:58:12.053Z,1012.7
2022-07-29T04:59:12.052Z,1012.7
2022-07-29T05:01:12.117Z,1012.6
2022-07-29T05:02:12.141Z,1012.6
2022-07-29T05:03:12.182Z,1012.6
2022-07-29T05:04:12.045Z,1012.6
2022-07-29T05:05:12.055Z,1012.6
2022-07-29T05:06:12.065Z,1012.6
2022-07-29T05:07:12.054Z,1012.5
2022-07-29T05:08:12.109Z,1012.5
2022-07-29T05:09:12.061Z,1012.5
2022-07-29T05:10:12.049Z,1012.5
2022-07-29T05:11:14.190Z,1012.5
2022-07-29T05:12:12.066Z,1012.5
2022-07-29T05:13:12.080Z,1012.5
2022-07-29T05:14:12.047Z,1012.5
2022-07-29T05:15:12.053Z,1012.5
2022-07-29T05:16:12.099Z,1012.4
2022-07-29T05:17:12.072Z,1012.5
2022-07-29T05:18:12.059Z,1012.4
2022-07-29T05:19:14.426Z,1012.4
2022-07-29T05:20:12.050Z,1012.3
2022-07-29T05:22:12.064Z,1012.4
2022-07-29T05:23:12.058Z,1012.3
2022-07-29T05:24:12.152Z,1012.3
2022-07-29T05:25:12.089Z,1012.3
2022-07-29T05:26:12.052Z,1012.3
2022-07-29T05:27:12.049Z,1012.3
2022-07-29T05:28:12.058Z,1012.3
2022-07-29T05:29:42.523Z,1012.3
2022-07-29T05:30:12.114Z,1012.3
2022-07-29T05:32:12.053Z,1012.4
2022-07-29T05:33:34.329Z,1012.3
2022-07-29T05:34:12.054Z,1012.4
2022-07-29T05:35:12.056Z,1012.4
2022-07-29T05:36:12.064Z,1012.4
2022-07-29T05:37:12.056Z,1012.4
2022-07-29T05:38:12.069Z,1012.4
2022-07-29T05:39:12.064Z,1012.4
2022-07-29T05:40:12.063Z,1012.4
2022-07-29T05:41:12.060Z,1012.4
2022-07-29T05:43:12.063Z,1012.5
2022-07-29T05:44:12.224Z,1012.5
2022-07-29T05:46:12.116Z,1012.7
2022-07-29T05:47:12.063Z,1012.7
2022-07-29T05:48:12.061Z,1012.8
2022-07-29T05:49:12.123Z,1012.8
2022-07-29T05:50:12.061Z,1012.9
2022-07-29T05:51:12.057Z,1013
2022-07-29T05:52:12.097Z,1013
2022-07-29T05:53:20.073Z,1012.9
2022-07-29T05:54:12.157Z,1012.9
2022-07-29T05:56:12.069Z,1012.7
2022-07-29T05:57:12.125Z,1012.7
2022-07-29T05:58:12.060Z,1012.6
2022-07-29T06:00:12.062Z,1012.6
2022-07-29T06:01:12.124Z,1012.6
2022-07-29T06:02:12.065Z,1012.6
2022-07-29T06:04:12.187Z,1012.6
2022-07-29T06:05:15.611Z,1012.6
2022-07-29T06:06:12.071Z,1012.5
2022-07-29T06:07:12.062Z,1012.5
2022-07-29T06:08:12.058Z,1012.4
2022-07-29T06:10:12.071Z,1012.4
2022-07-29T06:11:12.075Z,1012.4
2022-07-29T06:12:12.064Z,1012.4
2022-07-29T06:13:12.068Z,1012.4
2022-07-29T06:14:12.313Z,1012.3
2022-07-29T06:15:12.070Z,1012.4
2022-07-29T06:17:12.065Z,1012.3
2022-07-29T06:18:12.075Z,1012.3
2022-07-29T06:19:12.088Z,1012.3
2022-07-29T06:20:12.387Z,1012.3
2022-07-29T06:21:13.230Z,1012.3
2022-07-29T06:22:12.081Z,1012.2
2022-07-29T06:23:12.065Z,1012.2
2022-07-29T06:24:12.067Z,1012.2
2022-07-29T06:25:12.063Z,1012.2
2022-07-29T06:26:12.066Z,1012.2
2022-07-29T06:27:12.062Z,1012.2
2022-07-29T06:28:12.062Z,1012.2
2022-07-29T06:29:12.078Z,1012.2
2022-07-29T06:31:12.186Z,1012.2
2022-07-29T06:32:12.062Z,1012.1
2022-07-29T06:33:12.067Z,1012.1
2022-07-29T06:35:38.029Z,1012
2022-07-29T06:36:12.065Z,1012
2022-07-29T06:38:30.511Z,1012
2022-07-29T06:39:12.245Z,1012.1
2022-07-29T06:40:12.072Z,1012.2
2022-07-29T06:41:12.126Z,1012.2
2022-07-29T06:42:12.061Z,1012.3
2022-07-29T06:43:12.087Z,1012.4
2022-07-29T06:44:12.072Z,1012.5
2022-07-29T06:45:12.069Z,1012.6
2022-07-29T06:46:12.122Z,1012.6
2022-07-29T06:47:12.068Z,1012.6
2022-07-29T06:48:12.071Z,1012.6
2022-07-29T06:49:12.156Z,1012.6
2022-07-29T06:50:12.068Z,1012.6
2022-07-29T06:51:12.079Z,1012.5
2022-07-29T06:52:12.064Z,1012.5
2022-07-29T06:53:12.069Z,1012.5
2022-07-29T06:54:12.096Z,1012.5
2022-07-29T06:55:12.086Z,1012.5
2022-07-29T06:56:12.066Z,1012.6
2022-07-29T06:57:12.071Z,1012.6
2022-07-29T06:59:12.071Z,1012.6
2022-07-29T07:00:12.075Z,1012.7
2022-07-29T07:01:12.166Z,1012.7
2022-07-29T07:02:12.135Z,1012.6
2022-07-29T07:03:12.077Z,1012.6
2022-07-29T07:04:12.074Z,1012.6
2022-07-29T07:05:12.601Z,1012.6
2022-07-29T07:07:12.689Z,1012.6
2022-07-29T07:08:12.152Z,1012.7
2022-07-29T07:09:12.286Z,1012.7
2022-07-29T07:10:12.427Z,1012.7
2022-07-29T07:11:12.476Z,1012.7
2022-07-29T07:12:12.857Z,1012.7
2022-07-29T07:13:12.075Z,1012.8
2022-07-29T07:14:12.456Z,1012.8
2022-07-29T07:15:12.912Z,1012.8
2022-07-29T07:16:12.864Z,1012.8
2022-07-29T07:17:12.160Z,1012.8
2022-07-29T07:18:12.076Z,1012.8
2022-07-29T07:20:12.353Z,1012.8
2022-07-29T07:21:12.100Z,1012.8
2022-07-29T07:22:12.076Z,1012.8
2022-07-29T07:24:12.100Z,1012.8
2022-07-29T07:25:12.127Z,1012.9
2022-07-29T07:26:12.074Z,1012.9
2022-07-29T07:27:12.109Z,1013
2022-07-29T07:28:12.073Z,1013
2022-07-29T07:29:12.077Z,1013
2022-07-29T07:30:12.082Z,1013
2022-07-29T07:31:12.087Z,1013.1
2022-07-29T07:32:12.100Z,1013.1
2022-07-29T07:33:12.080Z,1013
2022-07-29T07:34:12.356Z,1013.1
2022-07-29T07:35:12.236Z,1013.1
2022-07-29T07:36:12.131Z,1013.1
2022-07-29T07:37:12.071Z,1013.2
2022-07-29T07:39:12.084Z,1013.2
2022-07-29T07:40:12.080Z,1013.2
2022-07-29T07:41:12.081Z,1013.2
2022-07-29T07:42:12.085Z,1013.2
2022-07-29T07:43:12.086Z,1013.2
2022-07-29T07:45:13.918Z,1013.3
2022-07-29T07:46:12.191Z,1013.3
2022-07-29T07:47:12.448Z,1013.3
2022-07-29T07:49:12.132Z,1013.2
2022-07-29T07:50:16.549Z,1013.3
2022-07-29T07:51:12.083Z,1013.3
2022-07-29T07:52:12.081Z,1013.3
2022-07-29T07:53:12.096Z,1013.3
2022-07-29T07:54:12.296Z,1013.2
2022-07-29T07:55:12.082Z,1013.2
2022-07-29T07:56:13.011Z,1013.2
2022-07-29T07:57:12.091Z,1013.2
2022-07-29T08:00:12.078Z,1013.2
2022-07-29T08:01:12.129Z,1013.2
2022-07-29T08:02:12.202Z,1013.2
2022-07-29T08:03:17.142Z,1013.2
2022-07-29T08:04:12.304Z,1013.3
2022-07-29T08:05:12.687Z,1013.3
2022-07-29T08:06:12.090Z,1013.3
2022-07-29T08:07:12.098Z,1013.2
2022-07-29T08:08:12.094Z,1013.2
2022-07-29T08:09:28.353Z,1013.2
2022-07-29T08:10:12.089Z,1013.2
2022-07-29T08:11:12.088Z,1013.2
2022-07-29T08:12:12.090Z,1013.2
2022-07-29T08:13:12.082Z,1013.2
2022-07-29T08:14:12.081Z,1013.2
2022-07-29T08:15:12.130Z,1013.3
2022-07-29T08:16:12.138Z,1013.3
2022-07-29T08:17:12.092Z,1013.3
2022-07-29T08:18:12.092Z,1013.3
2022-07-29T08:19:12.087Z,1013.3
2022-07-29T08:21:15.294Z,1013.3
2022-07-29T08:22:12.099Z,1013.3
2022-07-29T08:23:12.089Z,1013.3
2022-07-29T08:24:12.090Z,1013.3
2022-07-29T08:25:12.089Z,1013.3
2022-07-29T08:26:12.101Z,1013.3
2022-07-29T08:27:33.348Z,1013.3
2022-07-29T08:28:12.087Z,1013.3
2022-07-29T08:29:12.090Z,1013.3
2022-07-29T08:30:12.092Z,1013.3
2022-07-29T08:31:12.090Z,1013.3
2022-07-29T08:32:12.167Z,1013.3
2022-07-29T08:34:12.090Z,1013.3
2022-07-29T08:35:12.087Z,1013.3
2022-07-29T08:36:12.095Z,1013.3
2022-07-29T08:37:12.088Z,1013.3
2022-07-29T08:38:12.095Z,1013.3
2022-07-29T08:39:12.093Z,1013.3
2022-07-29T08:40:12.090Z,1013.3
2022-07-29T08:42:12.101Z,1013.2
2022-07-29T08:43:12.110Z,1013.2
2022-07-29T08:44:12.105Z,1013.3
2022-07-29T08:45:12.097Z,1013.3
2022-07-29T08:46:12.176Z,1013.3
2022-07-29T08:47:12.108Z,1013.3
2022-07-29T08:48:12.097Z,1013.3
2022-07-29T08:49:12.177Z,1013.3
2022-07-29T08:50:12.096Z,1013.3
2022-07-29T08:51:12.106Z,1013.3
2022-07-29T08:52:12.095Z,1013.3
2022-07-29T08:53:12.125Z,1013.3
2022-07-29T08:55:12.104Z,1013.3
2022-07-29T08:56:12.109Z,1013.3
2022-07-29T08:57:12.113Z,1013.3
2022-07-29T08:59:12.203Z,1013.2
2022-07-29T09:00:12.249Z,1013.2
2022-07-29T09:01:12.458Z,1013.2
2022-07-29T09:03:12.131Z,1013.2
2022-07-29T09:04:12.103Z,1013.2
2022-07-29T09:05:12.107Z,1013.2
2022-07-29T09:06:12.108Z,1013.3
2022-07-29T09:07:12.101Z,1013.3
2022-07-29T09:08:12.136Z,1013.2
2022-07-29T09:09:12.101Z,1013.2
2022-07-29T09:10:12.149Z,1013.2
2022-07-29T09:11:12.108Z,1013.2
2022-07-29T09:12:12.115Z,1013.2
2022-07-29T09:13:12.109Z,1013.2
2022-07-29T09:14:12.104Z,1013.2
2022-07-29T09:16:12.152Z,1013.2
2022-07-29T09:17:12.171Z,1013.2
2022-07-29T09:18:20.416Z,1013.3
2022-07-29T09:19:12.107Z,1013.3
2022-07-29T09:20:12.102Z,1013.3
2022-07-29T09:21:12.144Z,1013.2
2022-07-29T09:22:12.106Z,1013.2
2022-07-29T09:24:12.101Z,1013.2
2022-07-29T09:25:12.106Z,1013.2
2022-07-29T09:26:12.106Z,1013.2
2022-07-29T09:27:12.132Z,1013.2
2022-07-29T09:28:12.121Z,1013.2
2022-07-29T09:29:12.113Z,1013.3
2022-07-29T09:30:12.104Z,1013.3
2022-07-29T09:31:12.159Z,1013.3
2022-07-29T09:32:12.104Z,1013.3
2022-07-29T09:33:12.110Z,1013.4
2022-07-29T09:34:12.114Z,1013.4
2022-07-29T09:35:12.114Z,1013.4
2022-07-29T09:37:12.113Z,1013.2
2022-07-29T09:38:12.130Z,1013.2
2022-07-29T09:39:12.115Z,1013.2
2022-07-29T09:40:12.102Z,1013.1
2022-07-29T09:41:12.120Z,1013.2
2022-07-29T09:42:12.111Z,1013.2
2022-07-29T09:43:12.270Z,1013.2
2022-07-29T09:44:12.188Z,1013.2
2022-07-29T09:45:12.106Z,1013.2
2022-07-29T09:46:12.466Z,1013.2
2022-07-29T09:48:12.110Z,1013.1
2022-07-29T09:49:12.225Z,1013.1
2022-07-29T09:50:12.132Z,1013.1
2022-07-29T09:51:12.114Z,1013.1
2022-07-29T09:52:12.120Z,1013.1
2022-07-29T09:53:12.115Z,1013
2022-07-29T09:54:12.179Z,1013
2022-07-29T09:56:30.537Z,1013
2022-07-29T10:00:12.117Z,1012.9
2022-07-29T10:01:12.147Z,1013
2022-07-29T10:02:12.109Z,1013
2022-07-29T10:03:12.196Z,1013
2022-07-29T10:04:12.116Z,1012.9
2022-07-29T10:05:12.114Z,1012.9
2022-07-29T10:06:12.114Z,1012.9
2022-07-29T10:07:12.120Z,1012.9
2022-07-29T10:09:12.143Z,1012.9
2022-07-29T10:10:12.132Z,1012.9
2022-07-29T10:11:12.119Z,1012.9
2022-07-29T10:12:12.123Z,1012.9
2022-07-29T10:13:15.332Z,1012.9
2022-07-29T10:14:12.127Z,1012.9
2022-07-29T10:15:12.115Z,1012.9
2022-07-29T10:17:12.116Z,1012.9
2022-07-29T10:18:12.124Z,1012.9
2022-07-29T10:19:12.119Z,1012.9
2022-07-29T10:20:16.287Z,1012.9
2022-07-29T10:21:22.645Z,1012.9
2022-07-29T10:22:12.124Z,1012.9
2022-07-29T10:23:12.127Z,1012.9
2022-07-29T10:24:15.063Z,1012.9
2022-07-29T10:25:12.116Z,1012.9
2022-07-29T10:26:12.147Z,1012.9
2022-07-29T10:27:12.123Z,1012.9
2022-07-29T10:28:16.037Z,1012.9
2022-07-29T10:30:12.117Z,1012.9
2022-07-29T10:31:12.155Z,1012.9
2022-07-29T10:32:12.117Z,1012.9
2022-07-29T10:33:12.140Z,1012.9
2022-07-29T10:34:12.120Z,1012.9
2022-07-29T10:35:12.133Z,1012.8
2022-07-29T10:38:16.238Z,1012.9
2022-07-29T10:39:12.132Z,1012.9
2022-07-29T10:40:12.124Z,1012.9
2022-07-29T10:41:12.129Z,1012.9
2022-07-29T10:42:12.123Z,1012.9
2022-07-29T10:43:12.132Z,1012.9
2022-07-29T10:44:17.195Z,1012.9
2022-07-29T10:45:12.136Z,1012.9
2022-07-29T10:46:12.164Z,1012.9
2022-07-29T10:47:12.127Z,1012.9
2022-07-29T10:48:12.154Z,1012.9
2022-07-29T10:49:15.239Z,1012.8
2022-07-29T10:50:16.970Z,1012.9
2022-07-29T10:51:12.128Z,1012.9
2022-07-29T10:52:12.129Z,1012.9
2022-07-29T10:53:12.146Z,1012.9
2022-07-29T10:54:12.127Z,1012.9
2022-07-29T10:55:12.128Z,1012.9
2022-07-29T10:56:16.059Z,1012.9
2022-07-29T10:57:12.133Z,1012.9
2022-07-29T10:59:12.130Z,1012.9
2022-07-29T11:00:12.135Z,1012.9
2022-07-29T11:01:12.130Z,1013
2022-07-29T11:02:36.518Z,1013
2022-07-29T11:03:12.161Z,1013
2022-07-29T11:04:12.134Z,1013
2022-07-29T11:05:12.191Z,1013
2022-07-29T11:06:12.135Z,1013
2022-07-29T11:07:12.134Z,1013
2022-07-29T11:08:19.630Z,1013
2022-07-29T11:09:12.135Z,1013
2022-07-29T11:10:12.262Z,1013
2022-07-29T11:11:12.136Z,1013
2022-07-29T11:12:12.130Z,1013
2022-07-29T11:13:12.141Z,1013
2022-07-29T11:14:12.134Z,1013
2022-07-29T11:16:12.128Z,1013
2022-07-29T11:17:14.079Z,1013
2022-07-29T11:18:15.049Z,1013
2022-07-29T11:20:12.166Z,1013.1
2022-07-29T11:21:12.129Z,1013.1
2022-07-29T11:23:12.137Z,1013.1
2022-07-29T11:24:12.147Z,1013.1
2022-07-29T11:26:12.855Z,1013.1
2022-07-29T11:27:13.315Z,1013.1
2022-07-29T11:28:12.135Z,1013.1
2022-07-29T11:29:12.138Z,1013.1
2022-07-29T11:30:12.205Z,1013.2
2022-07-29T11:31:12.135Z,1013.1
2022-07-29T11:32:15.816Z,1013.1
2022-07-29T11:33:12.137Z,1013.1
2022-07-29T11:34:12.133Z,1013.1
2022-07-29T11:35:17.860Z,1013.1
2022-07-29T11:37:12.397Z,1013.1
2022-07-29T11:38:12.137Z,1013.1
2022-07-29T11:39:12.237Z,1013.1
2022-07-29T11:40:12.248Z,1013.1
2022-07-29T11:41:12.140Z,1013.1
2022-07-29T11:42:13.506Z,1013.1
2022-07-29T11:43:12.173Z,1013.2
2022-07-29T11:44:12.202Z,1013.2
2022-07-29T11:45:43.003Z,1013.2
2022-07-29T11:46:12.141Z,1013.2
2022-07-29T11:47:12.146Z,1013.2
2022-07-29T11:48:29.081Z,1013.2
2022-07-29T11:49:12.188Z,1013.2
2022-07-29T11:50:12.149Z,1013.2
2022-07-29T11:51:12.154Z,1013.2
2022-07-29T11:52:12.169Z,1013.1
2022-07-29T11:53:12.143Z,1013.1
2022-07-29T11:54:12.897Z,1013.1
2022-07-29T11:55:12.148Z,1013.1
2022-07-29T11:56:12.141Z,1013.1
2022-07-29T11:57:12.147Z,1013.1
2022-07-29T11:58:12.143Z,1013.1
2022-07-29T11:59:15.145Z,1013.1
2022-07-29T12:00:14.504Z,1013.1
2022-07-29T12:02:36.620Z,1013
2022-07-29T12:03:12.192Z,1013.1
2022-07-29T12:05:12.145Z,1013
2022-07-29T12:06:12.155Z,1013.1
2022-07-29T12:07:15.310Z,1013
2022-07-29T12:08:12.620Z,1013
2022-07-29T12:09:14.705Z,1013
2022-07-29T12:10:20.138Z,1013.1
2022-07-29T12:11:12.140Z,1013
2022-07-29T12:12:12.141Z,1013.1
2022-07-29T12:13:12.149Z,1013.1
2022-07-29T12:15:12.165Z,1013.1
2022-07-29T12:16:14.784Z,1013.1
2022-07-29T12:17:12.153Z,1013
2022-07-29T12:18:12.150Z,1013
2022-07-29T12:19:12.146Z,1013
2022-07-29T12:20:12.401Z,1013
2022-07-29T12:21:12.391Z,1013
2022-07-29T12:23:12.149Z,1013
2022-07-29T12:24:12.147Z,1013
2022-07-29T12:25:32.581Z,1013
2022-07-29T12:26:21.922Z,1013
2022-07-29T12:27:12.165Z,1013
2022-07-29T12:28:14.071Z,1013
2022-07-29T12:29:15.490Z,1013
2022-07-29T12:30:12.166Z,1013
2022-07-29T12:31:12.176Z,1013
2022-07-29T12:32:15.093Z,1013
2022-07-29T12:33:12.154Z,1012.9
2022-07-29T12:34:12.156Z,1013
2022-07-29T12:35:12.147Z,1013
2022-07-29T12:36:17.345Z,1013
2022-07-29T12:37:12.156Z,1013
2022-07-29T12:38:12.204Z,1013
2022-07-29T12:40:12.156Z,1013
2022-07-29T12:41:12.155Z,1013
2022-07-29T12:42:14.837Z,1013
2022-07-29T12:44:12.157Z,1013
2022-07-29T12:45:12.151Z,1013
2022-07-29T12:46:12.223Z,1013
2022-07-29T12:47:12.157Z,1013
2022-07-29T12:48:12.164Z,1013
2022-07-29T12:49:12.245Z,1013.1
2022-07-29T12:50:12.157Z,1013
2022-07-29T12:51:12.167Z,1013
2022-07-29T12:52:12.161Z,1013
2022-07-29T12:53:12.158Z,1013.1
2022-07-29T12:54:12.162Z,1013
2022-07-29T12:55:12.153Z,1013
2022-07-29T12:56:33.188Z,1013
2022-07-29T12:58:12.175Z,1013
2022-07-29T12:59:12.160Z,1013
2022-07-29T13:00:12.241Z,1013
2022-07-29T13:01:16.897Z,1013
2022-07-29T13:02:12.210Z,1013
2022-07-29T13:03:12.461Z,1013
2022-07-29T13:05:12.170Z,1013
2022-07-29T13:06:12.163Z,1013
2022-07-29T13:07:12.173Z,1013
2022-07-29T13:08:20.116Z,1013
2022-07-29T13:09:12.162Z,1013
2022-07-29T13:10:12.163Z,1013.1
2022-07-29T13:11:12.166Z,1013
2022-07-29T13:12:12.166Z,1013.1
2022-07-29T13:13:12.177Z,1013.1
2022-07-29T13:15:12.208Z,1013.1
2022-07-29T13:16:12.217Z,1013.1
2022-07-29T13:19:12.169Z,1013.1
2022-07-29T13:20:12.180Z,1013.1
2022-07-29T13:21:12.169Z,1013.1
2022-07-29T13:22:12.172Z,1013.1
2022-07-29T13:23:12.170Z,1013.1
2022-07-29T13:24:13.973Z,1013.1
2022-07-29T13:26:12.167Z,1013.2
2022-07-29T13:27:12.224Z,1013.1
2022-07-29T13:28:12.175Z,1013.2
2022-07-29T13:29:12.171Z,1013.1
2022-07-29T13:30:12.171Z,1013.1
2022-07-29T13:31:12.259Z,1013.1
2022-07-29T13:32:12.168Z,1013.2
2022-07-29T13:33:12.170Z,1013.1
2022-07-29T13:34:12.172Z,1013.1
2022-07-29T13:35:12.169Z,1013.2
2022-07-29T13:36:12.175Z,1013.1
2022-07-29T13:37:12.173Z,1013.1
2022-07-29T13:40:12.174Z,1013.1
2022-07-29T13:41:12.181Z,1013.1
2022-07-29T13:42:12.174Z,1013.1
2022-07-29T13:43:12.174Z,1013.1
2022-07-29T13:44:12.207Z,1013.1
2022-07-29T13:45:12.191Z,1013.1
2022-07-29T13:46:12.289Z,1013.1
2022-07-29T13:47:12.175Z,1013.1
2022-07-29T13:48:12.180Z,1013
2022-07-29T13:49:12.257Z,1013
2022-07-29T13:50:12.183Z,1013
2022-07-29T13:51:12.180Z,1013
2022-07-29T13:54:12.180Z,1013
2022-07-29T13:55:12.182Z,1013
2022-07-29T13:56:12.177Z,1013
2022-07-29T13:58:12.178Z,1013
2022-07-29T13:59:12.186Z,1013
2022-07-29T14:01:12.278Z,1012.9
2022-07-29T14:02:12.184Z,1013
2022-07-29T14:04:12.374Z,1012.9
2022-07-29T14:05:12.230Z,1012.9
2022-07-29T14:06:12.253Z,1013
2022-07-29T14:07:12.184Z,1013
2022-07-29T14:08:12.192Z,1013
2022-07-29T14:09:12.180Z,1012.9
2022-07-29T14:10:12.186Z,1012.9
2022-07-29T14:11:12.219Z,1013
2022-07-29T14:12:12.196Z,1012.9
2022-07-29T14:13:24.687Z,1013